sensor_id;sensor_type;location;lat;lon;timestamp;temperature;humidity
41447;DHT22;27185;52.040;4.490;2024-03-23T00:56:14;9.70;99.90
41447;DHT22;27185;52.040;4.490;2024-03-23T00:58:59;9.70;99.90
41447;DHT22;27185;52.040;4.490;2024-03-23T01:01:45;9.60;99.90
41447;DHT22;27185;52.040;4.490;2024-03-23T01:04:30;9.60;99.90
41447;DHT22;27185;52.040;4.490;2024-03-23T01:07:16;9.50;99.90
41447;DHT22;27185;52.040;4.490;2024-03-23T01:10:01;9.50;99.90
41447;DHT22;27185;52.040;4.490;2024-03-23T01:12:47;9.40;99.90
41447;DHT22;27185;52.040;4.490;2024-03-23T01:15:32;9.40;99.90
41447;DHT22;27185;52.040;4.490;2024-03-23T01:18:18;9.40;99.90
41447;DHT22;27185;52.040;4.490;2024-03-23T01:21:04;9.30;99.90
41447;DHT22;27185;52.040;4.490;2024-03-23T01:23:50;9.30;99.90
41447;DHT22;27185;52.040;4.490;2024-03-23T01:26:36;9.20;99.90
41447;DHT22;27185;52.040;4.490;2024-03-23T01:29:22;9.20;99.90
41447;DHT22;27185;52.040;4.490;2024-03-23T01:32:08;9.20;99.90
41447;DHT22;27185;52.040;4.490;2024-03-23T01:34:53;9.10;99.90
41447;DHT22;27185;52.040;4.490;2024-03-23T01:37:39;9.10;99.90
41447;DHT22;27185;52.040;4.490;2024-03-23T01:40:24;9.10;99.90
41447;DHT22;27185;52.040;4.490;2024-03-23T01:43:10;9.10;99.90
41447;DHT22;27185;52.040;4.490;2024-03-23T01:45:55;9.10;99.90
41447;DHT22;27185;52.040;4.490;2024-03-23T01:48:41;9.00;99.90
41447;DHT22;27185;52.040;4.490;2024-03-23T01:51:27;9.00;99.90
41447;DHT22;27185;52.040;4.490;2024-03-23T01:54:14;9.00;99.90
41447;DHT22;27185;52.040;4.490;2024-03-23T01:56:59;9.00;99.90
41447;DHT22;27185;52.040;4.490;2024-03-23T01:59:45;9.00;99.90
41447;DHT22;27185;52.040;4.490;2024-03-23T02:02:30;9.00;99.90
41447;DHT22;27185;52.040;4.490;2024-03-23T02:05:16;9.00;99.90
41447;DHT22;27185;52.040;4.490;2024-03-23T02:08:02;9.00;99.90
41447;DHT22;27185;52.040;4.490;2024-03-23T02:10:49;8.90;99.90
41447;DHT22;27185;52.040;4.490;2024-03-23T02:13:35;9.00;99.90
41447;DHT22;27185;52.040;4.490;2024-03-23T02:16:20;8.90;99.90
41447;DHT22;27185;52.040;4.490;2024-03-23T02:19:06;8.90;99.90
41447;DHT22;27185;52.040;4.490;2024-03-23T02:21:51;8.90;99.90
41447;DHT22;27185;52.040;4.490;2024-03-23T02:24:37;8.90;99.90
41447;DHT22;27185;52.040;4.490;2024-03-23T02:27:24;8.90;99.90
41447;DHT22;27185;52.040;4.490;2024-03-23T02:30:10;8.90;99.90
41447;DHT22;27185;52.040;4.490;2024-03-23T02:32:56;8.90;99.90
41447;DHT22;27185;52.040;4.490;2024-03-23T02:35:41;8.90;99.90
41447;DHT22;27185;52.040;4.490;2024-03-23T02:38:27;8.90;99.90
41447;DHT22;27185;52.040;4.490;2024-03-23T02:41:12;8.90;99.90
41447;DHT22;27185;52.040;4.490;2024-03-23T02:43:59;8.90;99.90
41447;DHT22;27185;52.040;4.490;2024-03-23T02:46:44;8.90;99.90
41447;DHT22;27185;52.040;4.490;2024-03-23T02:49:30;8.90;99.90
41447;DHT22;27185;52.040;4.490;2024-03-23T02:52:15;8.90;99.90
41447;DHT22;27185;52.040;4.490;2024-03-23T02:55:01;8.80;99.90
41447;DHT22;27185;52.040;4.490;2024-03-23T02:57:47;8.80;99.90
41447;DHT22;27185;52.040;4.490;2024-03-23T03:00:33;8.80;99.90
41447;DHT22;27185;52.040;4.490;2024-03-23T03:03:18;8.70;99.90
41447;DHT22;27185;52.040;4.490;2024-03-23T03:06:04;8.70;99.90
41447;DHT22;27185;52.040;4.490;2024-03-23T03:08:50;8.60;99.90
41447;DHT22;27185;52.040;4.490;2024-03-23T03:11:35;8.60;99.90
41447;DHT22;27185;52.040;4.490;2024-03-23T03:14:21;8.50;99.90
41447;DHT22;27185;52.040;4.490;2024-03-23T03:17:07;8.50;99.90
41447;DHT22;27185;52.040;4.490;2024-03-23T03:19:52;8.40;99.90
41447;DHT22;27185;52.040;4.490;2024-03-23T03:22:41;8.40;99.90
41447;DHT22;27185;52.040;4.490;2024-03-23T03:25:26;8.50;99.90
41447;DHT22;27185;52.040;4.490;2024-03-23T03:28:12;8.50;99.90
41447;DHT22;27185;52.040;4.490;2024-03-23T03:30:57;8.50;99.90
41447;DHT22;27185;52.040;4.490;2024-03-23T03:33:43;8.50;99.90
41447;DHT22;27185;52.040;4.490;2024-03-23T03:36:28;8.50;99.90
41447;DHT22;27185;52.040;4.490;2024-03-23T03:39:14;8.50;99.90
41447;DHT22;27185;52.040;4.490;2024-03-23T03:42:00;8.60;99.90
41447;DHT22;27185;52.040;4.490;2024-03-23T03:44:47;8.60;99.90
41447;DHT22;27185;52.040;4.490;2024-03-23T03:47:32;8.70;99.90
41447;DHT22;27185;52.040;4.490;2024-03-23T03:50:18;8.70;99.90
41447;DHT22;27185;52.040;4.490;2024-03-23T03:53:03;8.80;99.90
41447;DHT22;27185;52.040;4.490;2024-03-23T03:55:50;8.80;99.90
41447;DHT22;27185;52.040;4.490;2024-03-23T03:58:35;8.80;99.90
41447;DHT22;27185;52.040;4.490;2024-03-23T04:01:21;8.80;99.90
41447;DHT22;27185;52.040;4.490;2024-03-23T04:04:06;8.80;99.90
41447;DHT22;27185;52.040;4.490;2024-03-23T04:07:01;8.80;99.90
41447;DHT22;27185;52.040;4.490;2024-03-23T04:09:47;8.90;99.90
41447;DHT22;27185;52.040;4.490;2024-03-23T04:12:32;8.80;99.90
41447;DHT22;27185;52.040;4.490;2024-03-23T04:15:18;8.80;99.90
41447;DHT22;27185;52.040;4.490;2024-03-23T04:18:04;8.80;99.90
41447;DHT22;27185;52.040;4.490;2024-03-23T04:20:49;8.70;99.90
41447;DHT22;27185;52.040;4.490;2024-03-23T04:23:35;8.70;99.90
41447;DHT22;27185;52.040;4.490;2024-03-23T04:26:21;8.70;99.90
41447;DHT22;27185;52.040;4.490;2024-03-23T04:29:06;8.60;99.90
41447;DHT22;27185;52.040;4.490;2024-03-23T04:31:52;8.60;99.90
41447;DHT22;27185;52.040;4.490;2024-03-23T04:34:39;8.60;99.90
41447;DHT22;27185;52.040;4.490;2024-03-23T04:37:24;8.50;99.90
41447;DHT22;27185;52.040;4.490;2024-03-23T04:40:10;8.50;99.90
41447;DHT22;27185;52.040;4.490;2024-03-23T04:42:56;8.50;99.90
41447;DHT22;27185;52.040;4.490;2024-03-23T04:45:42;8.50;99.90
41447;DHT22;27185;52.040;4.490;2024-03-23T04:48:27;8.40;99.90
41447;DHT22;27185;52.040;4.490;2024-03-23T04:51:25;8.40;99.90
41447;DHT22;27185;52.040;4.490;2024-03-23T04:54:15;8.40;99.90
41447;DHT22;27185;52.040;4.490;2024-03-23T04:57:01;8.50;99.90
41447;DHT22;27185;52.040;4.490;2024-03-23T04:59:47;8.50;99.90
41447;DHT22;27185;52.040;4.490;2024-03-23T05:02:32;8.50;99.90
41447;DHT22;27185;52.040;4.490;2024-03-23T05:05:20;8.60;99.90
41447;DHT22;27185;52.040;4.490;2024-03-23T05:08:06;8.70;99.90
41447;DHT22;27185;52.040;4.490;2024-03-23T05:10:51;8.80;99.90
41447;DHT22;27185;52.040;4.490;2024-03-23T05:13:37;8.90;99.90
41447;DHT22;27185;52.040;4.490;2024-03-23T05:16:23;8.90;99.90
41447;DHT22;27185;52.040;4.490;2024-03-23T05:19:08;9.00;99.90
41447;DHT22;27185;52.040;4.490;2024-03-23T05:21:54;9.00;99.90
41447;DHT22;27185;52.040;4.490;2024-03-23T05:24:39;9.10;99.90
41447;DHT22;27185;52.040;4.490;2024-03-23T05:27:25;9.10;99.90
41447;DHT22;27185;52.040;4.490;2024-03-23T05:30:11;9.10;99.90
41447;DHT22;27185;52.040;4.490;2024-03-23T05:32:56;9.10;99.90
41447;DHT22;27185;52.040;4.490;2024-03-23T05:35:42;9.20;99.90
41447;DHT22;27185;52.040;4.490;2024-03-23T05:38:28;9.20;99.90
41447;DHT22;27185;52.040;4.490;2024-03-23T05:41:14;9.20;99.90
41447;DHT22;27185;52.040;4.490;2024-03-23T05:43:59;9.20;99.90
41447;DHT22;27185;52.040;4.490;2024-03-23T05:46:45;9.20;99.90
41447;DHT22;27185;52.040;4.490;2024-03-23T05:49:33;9.10;99.90
41447;DHT22;27185;52.040;4.490;2024-03-23T05:52:19;9.10;99.90
41447;DHT22;27185;52.040;4.490;2024-03-23T05:55:06;9.10;99.90
41447;DHT22;27185;52.040;4.490;2024-03-23T05:57:52;9.10;99.90
41447;DHT22;27185;52.040;4.490;2024-03-23T06:00:38;9.20;99.90
41447;DHT22;27185;52.040;4.490;2024-03-23T06:03:23;9.10;99.90
41447;DHT22;27185;52.040;4.490;2024-03-23T06:06:10;9.20;99.90
41447;DHT22;27185;52.040;4.490;2024-03-23T06:08:57;9.20;99.90
41447;DHT22;27185;52.040;4.490;2024-03-23T06:11:43;9.20;99.90
41447;DHT22;27185;52.040;4.490;2024-03-23T06:14:28;9.20;99.90
41447;DHT22;27185;52.040;4.490;2024-03-23T06:17:14;9.10;99.90
41447;DHT22;27185;52.040;4.490;2024-03-23T06:19:59;9.20;99.90
41447;DHT22;27185;52.040;4.490;2024-03-23T06:22:45;9.10;99.90
41447;DHT22;27185;52.040;4.490;2024-03-23T06:25:30;9.10;99.90
41447;DHT22;27185;52.040;4.490;2024-03-23T06:28:16;9.10;99.90
41447;DHT22;27185;52.040;4.490;2024-03-23T06:31:02;9.10;99.90
41447;DHT22;27185;52.040;4.490;2024-03-23T06:33:47;9.10;99.90
41447;DHT22;27185;52.040;4.490;2024-03-23T06:36:34;9.10;99.90
41447;DHT22;27185;52.040;4.490;2024-03-23T06:39:21;9.10;99.90
41447;DHT22;27185;52.040;4.490;2024-03-23T06:42:06;9.10;99.90
41447;DHT22;27185;52.040;4.490;2024-03-23T06:44:53;9.10;99.90
41447;DHT22;27185;52.040;4.490;2024-03-23T06:47:38;9.10;99.90
41447;DHT22;27185;52.040;4.490;2024-03-23T06:50:25;9.20;99.90
41447;DHT22;27185;52.040;4.490;2024-03-23T06:53:10;9.30;99.90
41447;DHT22;27185;52.040;4.490;2024-03-23T06:55:56;9.30;99.90
41447;DHT22;27185;52.040;4.490;2024-03-23T06:58:42;9.40;99.90
41447;DHT22;27185;52.040;4.490;2024-03-23T07:01:27;9.40;99.90
41447;DHT22;27185;52.040;4.490;2024-03-23T07:04:14;9.50;99.90
41447;DHT22;27185;52.040;4.490;2024-03-23T07:06:59;9.50;99.90
41447;DHT22;27185;52.040;4.490;2024-03-23T07:09:45;9.60;99.90
41447;DHT22;27185;52.040;4.490;2024-03-23T07:12:30;9.60;99.90
41447;DHT22;27185;52.040;4.490;2024-03-23T07:15:16;9.60;99.90
41447;DHT22;27185;52.040;4.490;2024-03-23T07:18:02;9.50;99.90
41447;DHT22;27185;52.040;4.490;2024-03-23T07:20:54;9.60;99.90
41447;DHT22;27185;52.040;4.490;2024-03-23T07:23:45;9.70;99.90
41447;DHT22;27185;52.040;4.490;2024-03-23T07:26:30;9.70;99.90
41447;DHT22;27185;52.040;4.490;2024-03-23T07:29:16;9.80;99.90
41447;DHT22;27185;52.040;4.490;2024-03-23T07:32:01;9.80;99.90
41447;DHT22;27185;52.040;4.490;2024-03-23T07:34:47;9.70;99.90
41447;DHT22;27185;52.040;4.490;2024-03-23T07:37:33;9.70;99.90
41447;DHT22;27185;52.040;4.490;2024-03-23T07:40:18;9.70;99.90
41447;DHT22;27185;52.040;4.490;2024-03-23T07:43:04;9.60;99.90
41447;DHT22;27185;52.040;4.490;2024-03-23T07:45:53;9.60;99.90
41447;DHT22;27185;52.040;4.490;2024-03-23T07:48:39;9.60;99.90
41447;DHT22;27185;52.040;4.490;2024-03-23T07:51:25;9.60;99.90
41447;DHT22;27185;52.040;4.490;2024-03-23T07:54:11;9.60;99.90
41447;DHT22;27185;52.040;4.490;2024-03-23T07:56:56;9.50;99.90
41447;DHT22;27185;52.040;4.490;2024-03-23T07:59:42;9.60;99.90
41447;DHT22;27185;52.040;4.490;2024-03-23T08:02:27;9.70;99.90
41447;DHT22;27185;52.040;4.490;2024-03-23T08:05:13;9.70;99.90
41447;DHT22;27185;52.040;4.490;2024-03-23T08:07:59;9.90;99.90
41447;DHT22;27185;52.040;4.490;2024-03-23T08:10:51;10.00;99.90
41447;DHT22;27185;52.040;4.490;2024-03-23T08:13:39;10.20;99.90
41447;DHT22;27185;52.040;4.490;2024-03-23T08:16:25;10.20;99.90
41447;DHT22;27185;52.040;4.490;2024-03-23T08:19:10;10.30;99.90
41447;DHT22;27185;52.040;4.490;2024-03-23T08:21:56;10.30;99.90
41447;DHT22;27185;52.040;4.490;2024-03-23T08:24:41;10.40;99.90
41447;DHT22;27185;52.040;4.490;2024-03-23T08:27:27;10.30;99.90
41447;DHT22;27185;52.040;4.490;2024-03-23T08:30:13;10.40;99.90
41447;DHT22;27185;52.040;4.490;2024-03-23T08:32:58;10.40;99.90
41447;DHT22;27185;52.040;4.490;2024-03-23T08:35:58;10.40;99.90
41447;DHT22;27185;52.040;4.490;2024-03-23T08:38:43;10.40;99.90
41447;DHT22;27185;52.040;4.490;2024-03-23T08:41:29;10.40;99.90
41447;DHT22;27185;52.040;4.490;2024-03-23T08:44:14;10.40;99.90
41447;DHT22;27185;52.040;4.490;2024-03-23T08:47:00;10.50;99.90
41447;DHT22;27185;52.040;4.490;2024-03-23T08:49:46;10.50;99.90
41447;DHT22;27185;52.040;4.490;2024-03-23T08:52:33;10.50;99.90
41447;DHT22;27185;52.040;4.490;2024-03-23T08:55:18;10.40;99.90
41447;DHT22;27185;52.040;4.490;2024-03-23T08:58:04;10.40;99.90
41447;DHT22;27185;52.040;4.490;2024-03-23T09:00:53;10.40;99.90
41447;DHT22;27185;52.040;4.490;2024-03-23T09:03:42;10.40;99.90
41447;DHT22;27185;52.040;4.490;2024-03-23T09:06:28;10.40;99.90
41447;DHT22;27185;52.040;4.490;2024-03-23T09:09:13;10.30;99.90
41447;DHT22;27185;52.040;4.490;2024-03-23T09:11:59;10.50;99.90
41447;DHT22;27185;52.040;4.490;2024-03-23T09:14:44;10.50;99.90
41447;DHT22;27185;52.040;4.490;2024-03-23T09:17:30;10.50;99.90
41447;DHT22;27185;52.040;4.490;2024-03-23T09:20:15;10.50;99.90
41447;DHT22;27185;52.040;4.490;2024-03-23T09:23:01;10.60;99.90
41447;DHT22;27185;52.040;4.490;2024-03-23T09:25:46;10.60;99.90
41447;DHT22;27185;52.040;4.490;2024-03-23T09:28:32;10.70;99.90
41447;DHT22;27185;52.040;4.490;2024-03-23T09:31:17;10.70;99.90
41447;DHT22;27185;52.040;4.490;2024-03-23T09:34:03;10.80;99.90
41447;DHT22;27185;52.040;4.490;2024-03-23T09:36:52;10.80;99.90
41447;DHT22;27185;52.040;4.490;2024-03-23T09:39:38;10.80;99.90
41447;DHT22;27185;52.040;4.490;2024-03-23T09:42:23;10.90;99.90
41447;DHT22;27185;52.040;4.490;2024-03-23T09:45:17;10.80;99.90
41447;DHT22;27185;52.040;4.490;2024-03-23T09:48:06;10.80;99.90
41447;DHT22;27185;52.040;4.490;2024-03-23T09:50:52;10.80;99.90
41447;DHT22;27185;52.040;4.490;2024-03-23T09:53:38;10.70;99.90
41447;DHT22;27185;52.040;4.490;2024-03-23T09:56:24;10.50;99.90
41447;DHT22;27185;52.040;4.490;2024-03-23T09:59:09;10.50;99.90
41447;DHT22;27185;52.040;4.490;2024-03-23T10:01:55;10.40;99.90
41447;DHT22;27185;52.040;4.490;2024-03-23T10:04:42;10.40;99.90
41447;DHT22;27185;52.040;4.490;2024-03-23T10:07:28;10.50;99.90
41447;DHT22;27185;52.040;4.490;2024-03-23T10:10:15;10.50;99.90
41447;DHT22;27185;52.040;4.490;2024-03-23T10:13:01;10.40;99.90
41447;DHT22;27185;52.040;4.490;2024-03-23T10:15:55;10.40;99.90
41447;DHT22;27185;52.040;4.490;2024-03-23T10:18:40;10.40;99.90
41447;DHT22;27185;52.040;4.490;2024-03-23T10:21:26;10.40;99.90
41447;DHT22;27185;52.040;4.490;2024-03-23T10:24:12;10.40;99.90
41447;DHT22;27185;52.040;4.490;2024-03-23T10:26:58;10.40;99.90
41447;DHT22;27185;52.040;4.490;2024-03-23T10:29:47;10.50;99.90
41447;DHT22;27185;52.040;4.490;2024-03-23T10:32:33;10.60;99.90
41447;DHT22;27185;52.040;4.490;2024-03-23T10:35:22;10.70;99.90
41447;DHT22;27185;52.040;4.490;2024-03-23T10:38:08;10.80;99.90
41447;DHT22;27185;52.040;4.490;2024-03-23T10:40:54;10.90;99.90
41447;DHT22;27185;52.040;4.490;2024-03-23T10:43:40;10.90;99.90
41447;DHT22;27185;52.040;4.490;2024-03-23T10:46:26;10.90;99.90
41447;DHT22;27185;52.040;4.490;2024-03-23T10:49:11;10.90;99.90
41447;DHT22;27185;52.040;4.490;2024-03-23T10:52:02;10.80;99.90
41447;DHT22;27185;52.040;4.490;2024-03-23T10:54:48;10.90;99.90
41447;DHT22;27185;52.040;4.490;2024-03-23T10:57:42;11.10;99.90
41447;DHT22;27185;52.040;4.490;2024-03-23T11:00:29;11.10;99.90
41447;DHT22;27185;52.040;4.490;2024-03-23T11:06:38;11.10;99.90
41447;DHT22;27185;52.040;4.490;2024-03-23T11:09:43;11.10;99.90
41447;DHT22;27185;52.040;4.490;2024-03-23T11:12:31;11.40;99.90
41447;DHT22;27185;52.040;4.490;2024-03-23T11:15:18;11.70;99.90
41447;DHT22;27185;52.040;4.490;2024-03-23T11:18:05;12.10;99.90
41447;DHT22;27185;52.040;4.490;2024-03-23T11:20:53;12.40;99.90
41447;DHT22;27185;52.040;4.490;2024-03-23T11:23:38;12.70;99.90
41447;DHT22;27185;52.040;4.490;2024-03-23T11:26:24;12.70;99.90
41447;DHT22;27185;52.040;4.490;2024-03-23T11:29:10;12.70;99.90
41447;DHT22;27185;52.040;4.490;2024-03-23T11:31:56;12.70;99.60
41447;DHT22;27185;52.040;4.490;2024-03-23T11:34:42;12.90;99.90
41447;DHT22;27185;52.040;4.490;2024-03-23T11:37:28;13.10;99.90
41447;DHT22;27185;52.040;4.490;2024-03-23T11:40:18;13.10;98.10
41447;DHT22;27185;52.040;4.490;2024-03-23T11:43:05;13.10;98.30
41447;DHT22;27185;52.040;4.490;2024-03-23T11:45:52;13.20;99.60
41447;DHT22;27185;52.040;4.490;2024-03-23T11:48:39;13.30;99.50
41447;DHT22;27185;52.040;4.490;2024-03-23T11:51:25;13.20;98.50
41447;DHT22;27185;52.040;4.490;2024-03-23T11:54:10;13.40;98.20
41447;DHT22;27185;52.040;4.490;2024-03-23T11:59:44;13.00;97.40
41447;DHT22;27185;52.040;4.490;2024-03-23T12:02:30;12.70;97.70
41447;DHT22;27185;52.040;4.490;2024-03-23T12:05:16;12.70;98.70
41447;DHT22;27185;52.040;4.490;2024-03-23T12:08:22;12.70;98.60
41447;DHT22;27185;52.040;4.490;2024-03-23T12:11:15;12.70;97.40
41447;DHT22;27185;52.040;4.490;2024-03-23T12:14:01;12.80;96.60
41447;DHT22;27185;52.040;4.490;2024-03-23T12:16:47;13.00;97.70
41447;DHT22;27185;52.040;4.490;2024-03-23T12:19:33;12.90;96.90
41447;DHT22;27185;52.040;4.490;2024-03-23T12:22:22;12.60;98.70
41447;DHT22;27185;52.040;4.490;2024-03-23T12:25:08;12.20;99.60
41447;DHT22;27185;52.040;4.490;2024-03-23T12:27:53;11.70;99.90
41447;DHT22;27185;52.040;4.490;2024-03-23T12:30:39;11.10;99.90
41447;DHT22;27185;52.040;4.490;2024-03-23T12:33:25;10.50;99.90
41447;DHT22;27185;52.040;4.490;2024-03-23T12:36:11;10.10;99.90
41447;DHT22;27185;52.040;4.490;2024-03-23T12:38:56;9.80;99.90
41447;DHT22;27185;52.040;4.490;2024-03-23T12:41:42;9.50;99.90
41447;DHT22;27185;52.040;4.490;2024-03-23T12:44:28;9.50;99.90
41447;DHT22;27185;52.040;4.490;2024-03-23T12:47:13;9.50;99.90
41447;DHT22;27185;52.040;4.490;2024-03-23T12:49:59;9.50;99.90
41447;DHT22;27185;52.040;4.490;2024-03-23T12:52:46;9.40;99.90
41447;DHT22;27185;52.040;4.490;2024-03-23T12:55:35;9.20;99.90
41447;DHT22;27185;52.040;4.490;2024-03-23T12:58:21;8.90;99.90
41447;DHT22;27185;52.040;4.490;2024-03-23T13:01:06;8.70;99.90
41447;DHT22;27185;52.040;4.490;2024-03-23T13:03:52;8.50;99.90
41447;DHT22;27185;52.040;4.490;2024-03-23T13:06:38;8.60;99.90
41447;DHT22;27185;52.040;4.490;2024-03-23T13:09:24;8.80;99.90
41447;DHT22;27185;52.040;4.490;2024-03-23T13:12:09;9.20;99.90
41447;DHT22;27185;52.040;4.490;2024-03-23T13:14:55;9.70;99.90
41447;DHT22;27185;52.040;4.490;2024-03-23T13:17:41;10.10;99.90
41447;DHT22;27185;52.040;4.490;2024-03-23T13:20:26;10.60;99.90
41447;DHT22;27185;52.040;4.490;2024-03-23T13:23:12;11.00;99.90
41447;DHT22;27185;52.040;4.490;2024-03-23T13:25:57;11.10;99.90
41447;DHT22;27185;52.040;4.490;2024-03-23T13:28:43;11.20;99.90
41447;DHT22;27185;52.040;4.490;2024-03-23T13:31:30;11.30;99.90
41447;DHT22;27185;52.040;4.490;2024-03-23T13:34:15;11.50;99.90
41447;DHT22;27185;52.040;4.490;2024-03-23T13:37:01;11.50;99.90
41447;DHT22;27185;52.040;4.490;2024-03-23T13:39:47;11.60;99.90
41447;DHT22;27185;52.040;4.490;2024-03-23T13:42:33;11.70;99.90
41447;DHT22;27185;52.040;4.490;2024-03-23T13:45:18;11.60;99.90
41447;DHT22;27185;52.040;4.490;2024-03-23T13:48:04;11.70;99.90
41447;DHT22;27185;52.040;4.490;2024-03-23T13:51:00;11.70;99.90
41447;DHT22;27185;52.040;4.490;2024-03-23T13:53:46;11.50;99.90
41447;DHT22;27185;52.040;4.490;2024-03-23T13:56:31;11.10;99.90
41447;DHT22;27185;52.040;4.490;2024-03-23T13:59:17;11.00;99.90
41447;DHT22;27185;52.040;4.490;2024-03-23T14:02:03;11.00;99.90
41447;DHT22;27185;52.040;4.490;2024-03-23T14:04:48;11.00;99.90
41447;DHT22;27185;52.040;4.490;2024-03-23T14:07:34;11.10;99.90
41447;DHT22;27185;52.040;4.490;2024-03-23T14:10:20;11.40;99.90
41447;DHT22;27185;52.040;4.490;2024-03-23T14:13:05;11.50;99.90
41447;DHT22;27185;52.040;4.490;2024-03-23T14:15:54;11.60;99.90
41447;DHT22;27185;52.040;4.490;2024-03-23T14:18:39;11.50;99.90
41447;DHT22;27185;52.040;4.490;2024-03-23T14:21:25;11.40;99.90
41447;DHT22;27185;52.040;4.490;2024-03-23T14:24:11;11.30;99.90
41447;DHT22;27185;52.040;4.490;2024-03-23T14:26:56;11.10;99.90
41447;DHT22;27185;52.040;4.490;2024-03-23T14:29:42;10.90;99.90
41447;DHT22;27185;52.040;4.490;2024-03-23T14:32:31;10.80;99.90
41447;DHT22;27185;52.040;4.490;2024-03-23T14:35:19;10.80;99.90
41447;DHT22;27185;52.040;4.490;2024-03-23T14:38:05;10.90;99.90
41447;DHT22;27185;52.040;4.490;2024-03-23T14:40:50;11.10;99.90
41447;DHT22;27185;52.040;4.490;2024-03-23T14:43:39;11.30;99.90
41447;DHT22;27185;52.040;4.490;2024-03-23T14:46:25;11.50;99.90
41447;DHT22;27185;52.040;4.490;2024-03-23T14:49:14;11.70;99.90
41447;DHT22;27185;52.040;4.490;2024-03-23T14:52:02;12.00;99.90
41447;DHT22;27185;52.040;4.490;2024-03-23T14:54:48;12.30;99.90
41447;DHT22;27185;52.040;4.490;2024-03-23T14:57:33;12.40;99.90
41447;DHT22;27185;52.040;4.490;2024-03-23T15:00:19;12.70;99.90
41447;DHT22;27185;52.040;4.490;2024-03-23T15:03:05;13.10;99.90
41447;DHT22;27185;52.040;4.490;2024-03-23T15:05:57;13.10;98.70
41447;DHT22;27185;52.040;4.490;2024-03-23T15:08:43;13.10;98.20
41447;DHT22;27185;52.040;4.490;2024-03-23T15:11:28;12.90;99.00
41447;DHT22;27185;52.040;4.490;2024-03-23T15:14:14;12.90;99.60
41447;DHT22;27185;52.040;4.490;2024-03-23T15:17:00;12.80;99.00
41447;DHT22;27185;52.040;4.490;2024-03-23T15:19:45;12.80;99.30
41447;DHT22;27185;52.040;4.490;2024-03-23T15:22:31;12.70;99.20
41447;DHT22;27185;52.040;4.490;2024-03-23T15:25:16;12.70;99.40
41447;DHT22;27185;52.040;4.490;2024-03-23T15:28:02;12.60;99.30
41447;DHT22;27185;52.040;4.490;2024-03-23T15:30:48;12.70;99.70
41447;DHT22;27185;52.040;4.490;2024-03-23T15:33:33;12.50;99.40
41447;DHT22;27185;52.040;4.490;2024-03-23T15:36:19;12.50;99.90
41447;DHT22;27185;52.040;4.490;2024-03-23T15:39:05;12.50;99.90
41447;DHT22;27185;52.040;4.490;2024-03-23T15:41:51;12.60;99.90
41447;DHT22;27185;52.040;4.490;2024-03-23T15:44:39;12.70;99.90
41447;DHT22;27185;52.040;4.490;2024-03-23T15:47:25;12.90;99.90
41447;DHT22;27185;52.040;4.490;2024-03-23T15:50:10;13.20;99.90
41447;DHT22;27185;52.040;4.490;2024-03-23T15:52:56;13.40;99.20
41447;DHT22;27185;52.040;4.490;2024-03-23T15:55:42;13.50;98.30
41447;DHT22;27185;52.040;4.490;2024-03-23T15:58:28;13.60;98.60
41447;DHT22;27185;52.040;4.490;2024-03-23T16:01:14;13.70;98.70
41447;DHT22;27185;52.040;4.490;2024-03-23T16:04:03;13.70;98.50
41447;DHT22;27185;52.040;4.490;2024-03-23T16:06:49;13.60;98.60
41447;DHT22;27185;52.040;4.490;2024-03-23T16:09:35;13.60;98.70
41447;DHT22;27185;52.040;4.490;2024-03-23T16:12:21;13.50;98.10
41447;DHT22;27185;52.040;4.490;2024-03-23T16:15:07;13.40;98.10
41447;DHT22;27185;52.040;4.490;2024-03-23T16:17:52;13.30;97.90
41447;DHT22;27185;52.040;4.490;2024-03-23T16:20:38;13.00;97.30
41447;DHT22;27185;52.040;4.490;2024-03-23T16:23:24;12.70;97.40
41447;DHT22;27185;52.040;4.490;2024-03-23T16:26:09;12.40;97.60
41447;DHT22;27185;52.040;4.490;2024-03-23T16:28:57;12.20;98.20
41447;DHT22;27185;52.040;4.490;2024-03-23T16:31:43;12.00;98.60
41447;DHT22;27185;52.040;4.490;2024-03-23T16:34:28;11.80;99.40
41447;DHT22;27185;52.040;4.490;2024-03-23T16:37:14;11.70;99.90
41447;DHT22;27185;52.040;4.490;2024-03-23T16:39:59;11.60;99.90
41447;DHT22;27185;52.040;4.490;2024-03-23T16:42:45;11.40;99.90
41447;DHT22;27185;52.040;4.490;2024-03-23T16:45:31;11.40;99.90
41447;DHT22;27185;52.040;4.490;2024-03-23T16:48:16;11.20;99.90
41447;DHT22;27185;52.040;4.490;2024-03-23T16:51:02;11.10;99.90
41447;DHT22;27185;52.040;4.490;2024-03-23T16:53:49;10.90;99.30
41447;DHT22;27185;52.040;4.490;2024-03-23T16:56:34;10.80;99.40
41447;DHT22;27185;52.040;4.490;2024-03-23T16:59:20;10.70;99.20
41447;DHT22;27185;52.040;4.490;2024-03-23T17:02:06;10.60;99.60
41447;DHT22;27185;52.040;4.490;2024-03-23T17:04:52;10.50;99.90
41447;DHT22;27185;52.040;4.490;2024-03-23T17:07:37;10.50;99.90
41447;DHT22;27185;52.040;4.490;2024-03-23T17:10:23;10.40;99.90
41447;DHT22;27185;52.040;4.490;2024-03-23T17:13:09;10.50;99.90
41447;DHT22;27185;52.040;4.490;2024-03-23T17:15:55;10.50;99.90
41447;DHT22;27185;52.040;4.490;2024-03-23T17:18:41;10.50;99.90
41447;DHT22;27185;52.040;4.490;2024-03-23T17:21:26;10.60;99.90
41447;DHT22;27185;52.040;4.490;2024-03-23T17:24:13;10.60;99.90
41447;DHT22;27185;52.040;4.490;2024-03-23T17:26:58;10.50;99.90
41447;DHT22;27185;52.040;4.490;2024-03-23T17:29:44;10.50;99.90
41447;DHT22;27185;52.040;4.490;2024-03-23T17:32:31;10.40;99.90
41447;DHT22;27185;52.040;4.490;2024-03-23T17:35:16;10.40;99.90
41447;DHT22;27185;52.040;4.490;2024-03-23T17:38:04;10.30;99.90
41447;DHT22;27185;52.040;4.490;2024-03-23T17:40:56;10.30;99.90
41447;DHT22;27185;52.040;4.490;2024-03-23T17:43:41;10.20;99.90
41447;DHT22;27185;52.040;4.490;2024-03-23T17:46:29;10.20;99.90
41447;DHT22;27185;52.040;4.490;2024-03-23T17:49:15;10.20;99.90
41447;DHT22;27185;52.040;4.490;2024-03-23T17:52:08;10.20;99.90
41447;DHT22;27185;52.040;4.490;2024-03-23T17:54:56;10.20;99.90
41447;DHT22;27185;52.040;4.490;2024-03-23T17:57:41;10.30;99.90
41447;DHT22;27185;52.040;4.490;2024-03-23T18:00:27;10.20;99.90
41447;DHT22;27185;52.040;4.490;2024-03-23T18:03:12;10.20;99.90
41447;DHT22;27185;52.040;4.490;2024-03-23T18:05:59;10.20;99.90
41447;DHT22;27185;52.040;4.490;2024-03-23T18:08:45;10.20;99.90
41447;DHT22;27185;52.040;4.490;2024-03-23T18:11:30;10.20;99.90
41447;DHT22;27185;52.040;4.490;2024-03-23T18:14:16;10.20;99.90
41447;DHT22;27185;52.040;4.490;2024-03-23T18:17:01;10.10;99.90
41447;DHT22;27185;52.040;4.490;2024-03-23T18:19:47;10.20;99.90
41447;DHT22;27185;52.040;4.490;2024-03-23T18:22:32;10.10;99.90
41447;DHT22;27185;52.040;4.490;2024-03-23T18:25:18;10.10;99.90
41447;DHT22;27185;52.040;4.490;2024-03-23T18:28:04;10.00;99.90
41447;DHT22;27185;52.040;4.490;2024-03-23T18:31:00;9.90;99.90
41447;DHT22;27185;52.040;4.490;2024-03-23T18:33:46;9.90;99.90
41447;DHT22;27185;52.040;4.490;2024-03-23T18:36:32;9.80;99.90
41447;DHT22;27185;52.040;4.490;2024-03-23T18:39:17;9.70;99.90